sensor_id;sensor_type;location;lat;lon;timestamp;temperature;humidity
61896;DHT22;47835;52.778;5.956;2022-08-03T00:01:19;22.40;99.90
61896;DHT22;47835;52.778;5.956;2022-08-03T00:03:45;22.40;99.90
61896;DHT22;47835;52.778;5.956;2022-08-03T00:06:10;22.40;99.90
61896;DHT22;47835;52.778;5.956;2022-08-03T00:08:36;22.40;99.90
61896;DHT22;47835;52.778;5.956;2022-08-03T00:11:02;22.40;99.90
61896;DHT22;47835;52.778;5.956;2022-08-03T00:13:28;22.40;99.90
61896;DHT22;47835;52.778;5.956;2022-08-03T00:15:54;22.40;99.90
61896;DHT22;47835;52.778;5.956;2022-08-03T00:18:20;22.30;99.90
61896;DHT22;47835;52.778;5.956;2022-08-03T00:20:46;22.40;99.90
61896;DHT22;47835;52.778;5.956;2022-08-03T00:23:11;22.30;99.90
61896;DHT22;47835;52.778;5.956;2022-08-03T00:25:38;22.30;99.90
61896;DHT22;47835;52.778;5.956;2022-08-03T00:28:04;22.30;99.90
61896;DHT22;47835;52.778;5.956;2022-08-03T00:30:30;22.30;99.90
61896;DHT22;47835;52.778;5.956;2022-08-03T00:32:57;22.30;99.90
61896;DHT22;47835;52.778;5.956;2022-08-03T00:35:23;22.30;99.90
61896;DHT22;47835;52.778;5.956;2022-08-03T00:37:49;22.30;99.90
61896;DHT22;47835;52.778;5.956;2022-08-03T00:40:16;22.30;99.90
61896;DHT22;47835;52.778;5.956;2022-08-03T00:42:55;22.30;99.90
61896;DHT22;47835;52.778;5.956;2022-08-03T00:45:25;22.30;99.90
61896;DHT22;47835;52.778;5.956;2022-08-03T00:47:51;22.30;99.90
61896;DHT22;47835;52.778;5.956;2022-08-03T00:50:17;22.30;99.90
61896;DHT22;47835;52.778;5.956;2022-08-03T00:52:44;22.30;99.90
61896;DHT22;47835;52.778;5.956;2022-08-03T00:55:10;22.30;99.90
61896;DHT22;47835;52.778;5.956;2022-08-03T00:57:37;22.30;99.90
61896;DHT22;47835;52.778;5.956;2022-08-03T01:00:07;22.30;99.90
61896;DHT22;47835;52.778;5.956;2022-08-03T01:02:33;22.20;99.90
61896;DHT22;47835;52.778;5.956;2022-08-03T01:04:59;22.30;99.90
61896;DHT22;47835;52.778;5.956;2022-08-03T01:07:41;22.30;99.90
61896;DHT22;47835;52.778;5.956;2022-08-03T01:10:16;22.20;99.90
61896;DHT22;47835;52.778;5.956;2022-08-03T01:16:11;22.20;99.90
61896;DHT22;47835;52.778;5.956;2022-08-03T01:21:22;22.20;99.90
61896;DHT22;47835;52.778;5.956;2022-08-03T01:26:59;22.20;99.90
61896;DHT22;47835;52.778;5.956;2022-08-03T01:32:10;22.20;99.90
61896;DHT22;47835;52.778;5.956;2022-08-03T01:34:42;22.20;99.90
61896;DHT22;47835;52.778;5.956;2022-08-03T01:37:10;22.20;99.90
61896;DHT22;47835;52.778;5.956;2022-08-03T01:39:38;22.20;99.90
61896;DHT22;47835;52.778;5.956;2022-08-03T01:42:06;22.20;99.90
61896;DHT22;47835;52.778;5.956;2022-08-03T01:44:36;22.20;99.90
61896;DHT22;47835;52.778;5.956;2022-08-03T01:47:03;22.20;99.90
61896;DHT22;47835;52.778;5.956;2022-08-03T01:49:30;22.20;99.90
61896;DHT22;47835;52.778;5.956;2022-08-03T01:51:57;22.20;99.90
61896;DHT22;47835;52.778;5.956;2022-08-03T01:54:25;22.20;99.90
61896;DHT22;47835;52.778;5.956;2022-08-03T01:56:52;22.20;99.90
61896;DHT22;47835;52.778;5.956;2022-08-03T01:59:19;22.20;99.90
61896;DHT22;47835;52.778;5.956;2022-08-03T02:01:47;22.20;99.90
61896;DHT22;47835;52.778;5.956;2022-08-03T02:04:16;22.20;99.90
61896;DHT22;47835;52.778;5.956;2022-08-03T02:06:44;22.10;99.90
61896;DHT22;47835;52.778;5.956;2022-08-03T02:09:12;22.10;99.90
61896;DHT22;47835;52.778;5.956;2022-08-03T02:11:39;22.20;99.90
61896;DHT22;47835;52.778;5.956;2022-08-03T02:14:07;22.10;99.90
61896;DHT22;47835;52.778;5.956;2022-08-03T02:16:33;22.10;99.90
61896;DHT22;47835;52.778;5.956;2022-08-03T02:19:03;22.10;99.90
61896;DHT22;47835;52.778;5.956;2022-08-03T02:21:31;22.10;99.90
61896;DHT22;47835;52.778;5.956;2022-08-03T02:23:57;22.10;99.90
61896;DHT22;47835;52.778;5.956;2022-08-03T02:26:28;22.10;99.90
61896;DHT22;47835;52.778;5.956;2022-08-03T02:28:55;22.10;99.90
61896;DHT22;47835;52.778;5.956;2022-08-03T02:31:24;22.10;99.90
61896;DHT22;47835;52.778;5.956;2022-08-03T02:33:53;22.10;99.90
61896;DHT22;47835;52.778;5.956;2022-08-03T02:36:24;22.10;99.90
61896;DHT22;47835;52.778;5.956;2022-08-03T02:38:53;22.10;99.90
61896;DHT22;47835;52.778;5.956;2022-08-03T02:41:24;22.10;99.90
61896;DHT22;47835;52.778;5.956;2022-08-03T02:43:53;22.10;99.90
61896;DHT22;47835;52.778;5.956;2022-08-03T02:46:24;22.10;99.90
61896;DHT22;47835;52.778;5.956;2022-08-03T02:48:53;22.10;99.90
61896;DHT22;47835;52.778;5.956;2022-08-03T02:51:20;22.10;99.90
61896;DHT22;47835;52.778;5.956;2022-08-03T02:53:47;22.10;99.90
61896;DHT22;47835;52.778;5.956;2022-08-03T02:56:14;22.10;99.90
61896;DHT22;47835;52.778;5.956;2022-08-03T02:58:42;22.00;99.90
61896;DHT22;47835;52.778;5.956;2022-08-03T03:01:08;22.10;99.90
61896;DHT22;47835;52.778;5.956;2022-08-03T03:03:35;22.10;99.90
61896;DHT22;47835;52.778;5.956;2022-08-03T03:06:02;22.10;99.90
61896;DHT22;47835;52.778;5.956;2022-08-03T03:08:28;22.10;99.90
61896;DHT22;47835;52.778;5.956;2022-08-03T03:10:56;22.10;99.90
61896;DHT22;47835;52.778;5.956;2022-08-03T03:13:22;22.10;99.90
61896;DHT22;47835;52.778;5.956;2022-08-03T03:15:48;22.10;99.90
61896;DHT22;47835;52.778;5.956;2022-08-03T03:18:16;22.00;99.90
61896;DHT22;47835;52.778;5.956;2022-08-03T03:20:42;22.10;99.90
61896;DHT22;47835;52.778;5.956;2022-08-03T03:23:09;22.10;99.90
61896;DHT22;47835;52.778;5.956;2022-08-03T03:25:36;22.00;99.90
61896;DHT22;47835;52.778;5.956;2022-08-03T03:28:02;22.00;99.90
61896;DHT22;47835;52.778;5.956;2022-08-03T03:30:29;22.00;99.90
61896;DHT22;47835;52.778;5.956;2022-08-03T03:32:57;22.10;99.90
61896;DHT22;47835;52.778;5.956;2022-08-03T03:35:22;22.00;99.90
61896;DHT22;47835;52.778;5.956;2022-08-03T03:37:48;22.00;99.90
61896;DHT22;47835;52.778;5.956;2022-08-03T03:40:14;22.10;99.90
61896;DHT22;47835;52.778;5.956;2022-08-03T03:42:40;22.00;99.90
61896;DHT22;47835;52.778;5.956;2022-08-03T03:45:07;22.00;99.90
61896;DHT22;47835;52.778;5.956;2022-08-03T03:47:33;22.00;99.90
61896;DHT22;47835;52.778;5.956;2022-08-03T03:50:04;22.00;99.90
61896;DHT22;47835;52.778;5.956;2022-08-03T03:52:31;22.00;99.90
61896;DHT22;47835;52.778;5.956;2022-08-03T03:54:57;22.00;99.90
61896;DHT22;47835;52.778;5.956;2022-08-03T03:57:23;22.00;99.90
61896;DHT22;47835;52.778;5.956;2022-08-03T03:59:49;22.00;99.90
61896;DHT22;47835;52.778;5.956;2022-08-03T04:02:14;22.00;99.90
61896;DHT22;47835;52.778;5.956;2022-08-03T04:04:40;22.00;99.90
61896;DHT22;47835;52.778;5.956;2022-08-03T04:07:25;22.00;99.90
61896;DHT22;47835;52.778;5.956;2022-08-03T04:10:15;21.90;99.90
61896;DHT22;47835;52.778;5.956;2022-08-03T04:13:03;22.00;99.90
61896;DHT22;47835;52.778;5.956;2022-08-03T04:15:32;22.00;99.90
61896;DHT22;47835;52.778;5.956;2022-08-03T04:17:58;21.90;99.90
61896;DHT22;47835;52.778;5.956;2022-08-03T04:20:27;21.90;99.90
61896;DHT22;47835;52.778;5.956;2022-08-03T04:22:55;21.90;99.90
61896;DHT22;47835;52.778;5.956;2022-08-03T04:25:26;21.80;99.90
61896;DHT22;47835;52.778;5.956;2022-08-03T04:27:55;21.80;99.90
61896;DHT22;47835;52.778;5.956;2022-08-03T04:30:27;21.80;99.90
61896;DHT22;47835;52.778;5.956;2022-08-03T04:32:55;21.80;99.90
61896;DHT22;47835;52.778;5.956;2022-08-03T04:35:25;21.70;99.90
61896;DHT22;47835;52.778;5.956;2022-08-03T04:37:54;21.70;99.90
61896;DHT22;47835;52.778;5.956;2022-08-03T04:40:30;21.70;99.90
61896;DHT22;47835;52.778;5.956;2022-08-03T04:42:58;21.70;99.90
61896;DHT22;47835;52.778;5.956;2022-08-03T04:45:24;21.80;99.90
61896;DHT22;47835;52.778;5.956;2022-08-03T04:47:51;21.80;99.90
61896;DHT22;47835;52.778;5.956;2022-08-03T04:50:17;21.80;99.90
61896;DHT22;47835;52.778;5.956;2022-08-03T04:52:43;21.80;99.90
61896;DHT22;47835;52.778;5.956;2022-08-03T04:55:09;21.90;99.90
61896;DHT22;47835;52.778;5.956;2022-08-03T04:57:34;21.90;99.90
61896;DHT22;47835;52.778;5.956;2022-08-03T05:00:00;21.90;99.90
61896;DHT22;47835;52.778;5.956;2022-08-03T05:02:26;21.90;99.90
61896;DHT22;47835;52.778;5.956;2022-08-03T05:04:52;21.90;99.90
61896;DHT22;47835;52.778;5.956;2022-08-03T05:07:18;21.90;99.90
61896;DHT22;47835;52.778;5.956;2022-08-03T05:09:44;22.00;99.90
61896;DHT22;47835;52.778;5.956;2022-08-03T05:12:10;22.00;99.90
61896;DHT22;47835;52.778;5.956;2022-08-03T05:14:36;22.00;99.90
61896;DHT22;47835;52.778;5.956;2022-08-03T05:17:06;22.00;99.90
61896;DHT22;47835;52.778;5.956;2022-08-03T05:19:32;22.00;99.90
61896;DHT22;47835;52.778;5.956;2022-08-03T05:21:58;22.10;99.90
61896;DHT22;47835;52.778;5.956;2022-08-03T05:24:23;22.10;99.90
61896;DHT22;47835;52.778;5.956;2022-08-03T05:26:49;22.10;99.90
61896;DHT22;47835;52.778;5.956;2022-08-03T05:29:14;22.10;99.90
61896;DHT22;47835;52.778;5.956;2022-08-03T05:31:40;22.00;99.90
61896;DHT22;47835;52.778;5.956;2022-08-03T05:34:06;22.00;99.90
61896;DHT22;47835;52.778;5.956;2022-08-03T05:36:31;22.00;99.90
61896;DHT22;47835;52.778;5.956;2022-08-03T05:38:57;22.00;99.90
61896;DHT22;47835;52.778;5.956;2022-08-03T05:41:23;22.00;99.90
61896;DHT22;47835;52.778;5.956;2022-08-03T05:43:52;21.90;99.90
61896;DHT22;47835;52.778;5.956;2022-08-03T05:46:18;21.90;99.90
61896;DHT22;47835;52.778;5.956;2022-08-03T05:48:44;21.90;99.90
61896;DHT22;47835;52.778;5.956;2022-08-03T05:51:10;21.90;99.90
61896;DHT22;47835;52.778;5.956;2022-08-03T05:53:36;21.90;99.90
61896;DHT22;47835;52.778;5.956;2022-08-03T05:56:02;21.90;99.90
61896;DHT22;47835;52.778;5.956;2022-08-03T05:58:28;21.90;99.90
61896;DHT22;47835;52.778;5.956;2022-08-03T06:00:53;21.90;99.90
61896;DHT22;47835;52.778;5.956;2022-08-03T06:03:19;21.90;99.90
61896;DHT22;47835;52.778;5.956;2022-08-03T06:05:45;21.90;99.90
61896;DHT22;47835;52.778;5.956;2022-08-03T06:08:10;21.90;99.90
61896;DHT22;47835;52.778;5.956;2022-08-03T06:10:37;21.90;99.90
61896;DHT22;47835;52.778;5.956;2022-08-03T06:13:03;22.00;99.90
61896;DHT22;47835;52.778;5.956;2022-08-03T06:15:28;22.00;99.90
61896;DHT22;47835;52.778;5.956;2022-08-03T06:17:55;22.00;99.90
61896;DHT22;47835;52.778;5.956;2022-08-03T06:20:22;22.10;99.90
61896;DHT22;47835;52.778;5.956;2022-08-03T06:22:48;22.10;99.90
61896;DHT22;47835;52.778;5.956;2022-08-03T06:25:13;22.10;99.90
61896;DHT22;47835;52.778;5.956;2022-08-03T06:27:39;22.20;99.90
61896;DHT22;47835;52.778;5.956;2022-08-03T06:30:06;22.20;99.90
61896;DHT22;47835;52.778;5.956;2022-08-03T06:32:39;22.20;99.90
61896;DHT22;47835;52.778;5.956;2022-08-03T06:35:05;22.20;99.90
61896;DHT22;47835;52.778;5.956;2022-08-03T06:37:41;22.20;99.90
61896;DHT22;47835;52.778;5.956;2022-08-03T06:40:08;22.20;99.90
61896;DHT22;47835;52.778;5.956;2022-08-03T06:42:33;22.20;99.90
61896;DHT22;47835;52.778;5.956;2022-08-03T06:44:59;22.30;99.90
61896;DHT22;47835;52.778;5.956;2022-08-03T06:47:25;22.30;99.90
61896;DHT22;47835;52.778;5.956;2022-08-03T06:49:50;22.30;99.90
61896;DHT22;47835;52.778;5.956;2022-08-03T06:52:16;22.30;99.90
61896;DHT22;47835;52.778;5.956;2022-08-03T06:54:41;22.30;99.90
61896;DHT22;47835;52.778;5.956;2022-08-03T06:57:07;22.30;99.90
61896;DHT22;47835;52.778;5.956;2022-08-03T06:59:32;22.30;99.90
61896;DHT22;47835;52.778;5.956;2022-08-03T07:01:58;22.40;99.90
61896;DHT22;47835;52.778;5.956;2022-08-03T07:04:23;22.40;99.90
61896;DHT22;47835;52.778;5.956;2022-08-03T07:06:49;22.40;99.90
61896;DHT22;47835;52.778;5.956;2022-08-03T07:09:14;22.40;99.90
61896;DHT22;47835;52.778;5.956;2022-08-03T07:11:40;22.40;99.90
61896;DHT22;47835;52.778;5.956;2022-08-03T07:14:06;22.40;99.90
61896;DHT22;47835;52.778;5.956;2022-08-03T07:16:31;22.50;99.90
61896;DHT22;47835;52.778;5.956;2022-08-03T07:18:57;22.50;99.90
61896;DHT22;47835;52.778;5.956;2022-08-03T07:21:22;22.50;99.90
61896;DHT22;47835;52.778;5.956;2022-08-03T07:23:48;22.50;99.90
61896;DHT22;47835;52.778;5.956;2022-08-03T07:26:14;22.50;99.90
61896;DHT22;47835;52.778;5.956;2022-08-03T07:28:39;22.50;99.90
61896;DHT22;47835;52.778;5.956;2022-08-03T07:31:05;22.50;99.90
61896;DHT22;47835;52.778;5.956;2022-08-03T07:33:30;22.50;99.90
61896;DHT22;47835;52.778;5.956;2022-08-03T07:35:56;22.60;99.90
61896;DHT22;47835;52.778;5.956;2022-08-03T07:38:21;22.60;99.90
61896;DHT22;47835;52.778;5.956;2022-08-03T07:40:47;22.60;99.90
61896;DHT22;47835;52.778;5.956;2022-08-03T07:43:13;22.60;99.90
61896;DHT22;47835;52.778;5.956;2022-08-03T07:45:38;22.60;99.90
61896;DHT22;47835;52.778;5.956;2022-08-03T07:48:04;22.60;99.90
61896;DHT22;47835;52.778;5.956;2022-08-03T07:50:29;22.60;99.90
61896;DHT22;47835;52.778;5.956;2022-08-03T07:52:55;22.60;99.90
61896;DHT22;47835;52.778;5.956;2022-08-03T07:55:23;22.60;99.90
61896;DHT22;47835;52.778;5.956;2022-08-03T08:00:34;22.60;99.90
61896;DHT22;47835;52.778;5.956;2022-08-03T08:02:59;22.70;99.90
61896;DHT22;47835;52.778;5.956;2022-08-03T08:05:25;22.70;99.90
61896;DHT22;47835;52.778;5.956;2022-08-03T08:07:52;22.70;99.90
61896;DHT22;47835;52.778;5.956;2022-08-03T08:10:17;22.70;99.90
61896;DHT22;47835;52.778;5.956;2022-08-03T08:12:43;22.70;99.90
61896;DHT22;47835;52.778;5.956;2022-08-03T08:15:09;22.70;99.90
61896;DHT22;47835;52.778;5.956;2022-08-03T08:18:03;22.70;99.90
61896;DHT22;47835;52.778;5.956;2022-08-03T08:20:32;22.70;99.90
61896;DHT22;47835;52.778;5.956;2022-08-03T08:23:03;22.70;99.90
61896;DHT22;47835;52.778;5.956;2022-08-03T08:25:29;22.70;99.90
61896;DHT22;47835;52.778;5.956;2022-08-03T08:27:55;22.70;99.90
61896;DHT22;47835;52.778;5.956;2022-08-03T08:30:22;22.70;99.90
61896;DHT22;47835;52.778;5.956;2022-08-03T08:32:49;22.70;99.90
61896;DHT22;47835;52.778;5.956;2022-08-03T08:35:15;22.70;99.90
61896;DHT22;47835;52.778;5.956;2022-08-03T08:37:41;22.70;99.90
61896;DHT22;47835;52.778;5.956;2022-08-03T08:40:08;22.70;99.90
61896;DHT22;47835;52.778;5.956;2022-08-03T08:42:39;22.70;99.90
61896;DHT22;47835;52.778;5.956;2022-08-03T08:45:05;22.70;99.90
61896;DHT22;47835;52.778;5.956;2022-08-03T08:47:35;22.70;99.90
61896;DHT22;47835;52.778;5.956;2022-08-03T08:50:02;22.70;99.90
61896;DHT22;47835;52.778;5.956;2022-08-03T08:52:29;22.70;99.90
61896;DHT22;47835;52.778;5.956;2022-08-03T08:55:00;22.70;99.90
61896;DHT22;47835;52.778;5.956;2022-08-03T08:57:30;22.70;99.90
61896;DHT22;47835;52.778;5.956;2022-08-03T08:59:58;22.70;99.90
61896;DHT22;47835;52.778;5.956;2022-08-03T09:02:24;22.70;99.90
61896;DHT22;47835;52.778;5.956;2022-08-03T09:04:50;22.70;99.90
61896;DHT22;47835;52.778;5.956;2022-08-03T09:07:16;22.70;99.90
61896;DHT22;47835;52.778;5.956;2022-08-03T09:09:42;22.70;99.90
61896;DHT22;47835;52.778;5.956;2022-08-03T09:12:08;22.80;99.90
61896;DHT22;47835;52.778;5.956;2022-08-03T09:14:34;22.70;99.90
61896;DHT22;47835;52.778;5.956;2022-08-03T09:17:01;22.80;99.90
61896;DHT22;47835;52.778;5.956;2022-08-03T09:19:28;22.80;99.90
61896;DHT22;47835;52.778;5.956;2022-08-03T09:24:35;22.80;99.90
61896;DHT22;47835;52.778;5.956;2022-08-03T09:27:03;22.80;99.90
61896;DHT22;47835;52.778;5.956;2022-08-03T09:29:31;22.80;99.90
61896;DHT22;47835;52.778;5.956;2022-08-03T09:32:03;22.80;99.90
61896;DHT22;47835;52.778;5.956;2022-08-03T09:34:29;22.80;99.90
61896;DHT22;47835;52.778;5.956;2022-08-03T09:36:55;22.80;99.90
61896;DHT22;47835;52.778;5.956;2022-08-03T09:39:24;22.80;99.90
61896;DHT22;47835;52.778;5.956;2022-08-03T09:42:09;22.80;99.90
61896;DHT22;47835;52.778;5.956;2022-08-03T09:44:35;22.80;99.90
61896;DHT22;47835;52.778;5.956;2022-08-03T09:47:01;22.80;99.90
61896;DHT22;47835;52.778;5.956;2022-08-03T09:49:27;22.90;99.90
61896;DHT22;47835;52.778;5.956;2022-08-03T09:51:53;22.90;99.90
61896;DHT22;47835;52.778;5.956;2022-08-03T09:54:29;22.90;99.90
61896;DHT22;47835;52.778;5.956;2022-08-03T09:56:55;22.90;99.90
61896;DHT22;47835;52.778;5.956;2022-08-03T09:59:27;22.90;99.90
61896;DHT22;47835;52.778;5.956;2022-08-03T10:01:54;22.90;99.90
61896;DHT22;47835;52.778;5.956;2022-08-03T10:04:21;22.90;99.90
61896;DHT22;47835;52.778;5.956;2022-08-03T10:07:06;22.90;99.90
61896;DHT22;47835;52.778;5.956;2022-08-03T10:09:32;22.90;99.90
61896;DHT22;47835;52.778;5.956;2022-08-03T10:12:10;22.90;99.90
61896;DHT22;47835;52.778;5.956;2022-08-03T10:14:37;22.90;99.90
61896;DHT22;47835;52.778;5.956;2022-08-03T10:17:04;22.90;99.90
61896;DHT22;47835;52.778;5.956;2022-08-03T10:19:29;22.90;99.90
61896;DHT22;47835;52.778;5.956;2022-08-03T10:22:08;22.90;99.90
61896;DHT22;47835;52.778;5.956;2022-08-03T10:24:35;22.90;99.90
61896;DHT22;47835;52.778;5.956;2022-08-03T10:27:12;22.90;99.90
61896;DHT22;47835;52.778;5.956;2022-08-03T10:29:49;23.00;99.90
61896;DHT22;47835;52.778;5.956;2022-08-03T10:32:50;22.90;99.90
61896;DHT22;47835;52.778;5.956;2022-08-03T10:35:20;22.90;99.90
61896;DHT22;47835;52.778;5.956;2022-08-03T10:38:02;22.90;99.90
61896;DHT22;47835;52.778;5.956;2022-08-03T10:40:30;23.00;99.90
61896;DHT22;47835;52.778;5.956;2022-08-03T10:43:20;23.00;99.90
61896;DHT22;47835;52.778;5.956;2022-08-03T10:45:47;23.00;99.90
61896;DHT22;47835;52.778;5.956;2022-08-03T10:48:13;22.90;99.90
61896;DHT22;47835;52.778;5.956;2022-08-03T10:50:39;23.00;99.90
61896;DHT22;47835;52.778;5.956;2022-08-03T10:53:07;23.00;99.90
61896;DHT22;47835;52.778;5.956;2022-08-03T10:55:41;23.00;99.90
61896;DHT22;47835;52.778;5.956;2022-08-03T11:01:04;23.00;99.90
61896;DHT22;47835;52.778;5.956;2022-08-03T11:03:30;23.00;99.90
61896;DHT22;47835;52.778;5.956;2022-08-03T11:06:17;23.00;99.90
61896;DHT22;47835;52.778;5.956;2022-08-03T11:08:45;23.00;99.90
61896;DHT22;47835;52.778;5.956;2022-08-03T11:14:05;23.00;99.90
61896;DHT22;47835;52.778;5.956;2022-08-03T11:17:05;23.00;99.90
61896;DHT22;47835;52.778;5.956;2022-08-03T11:19:45;23.00;99.90
61896;DHT22;47835;52.778;5.956;2022-08-03T11:22:11;23.00;99.90
61896;DHT22;47835;52.778;5.956;2022-08-03T11:27:21;23.00;99.90
61896;DHT22;47835;52.778;5.956;2022-08-03T11:30:00;23.00;99.90
61896;DHT22;47835;52.778;5.956;2022-08-03T11:35:29;23.00;99.90
61896;DHT22;47835;52.778;5.956;2022-08-03T11:40:52;23.10;99.90
61896;DHT22;47835;52.778;5.956;2022-08-03T11:48:22;23.10;99.90
61896;DHT22;47835;52.778;5.956;2022-08-03T11:50:49;23.10;99.90
61896;DHT22;47835;52.778;5.956;2022-08-03T11:53:16;23.10;99.90
61896;DHT22;47835;52.778;5.956;2022-08-03T11:55:44;23.10;99.90
61896;DHT22;47835;52.778;5.956;2022-08-03T11:58:21;23.10;99.90
61896;DHT22;47835;52.778;5.956;2022-08-03T12:00:48;23.10;99.90
61896;DHT22;47835;52.778;5.956;2022-08-03T12:03:15;23.10;99.90
61896;DHT22;47835;52.778;5.956;2022-08-03T12:05:47;23.10;99.90
61896;DHT22;47835;52.778;5.956;2022-08-03T12:08:15;23.10;99.90
61896;DHT22;47835;52.778;5.956;2022-08-03T12:10:46;23.20;99.90
61896;DHT22;47835;52.778;5.956;2022-08-03T12:13:12;23.20;99.90
61896;DHT22;47835;52.778;5.956;2022-08-03T12:15:37;23.20;99.90
61896;DHT22;47835;52.778;5.956;2022-08-03T12:18:13;23.10;99.90
61896;DHT22;47835;52.778;5.956;2022-08-03T12:20:39;23.20;99.90
61896;DHT22;47835;52.778;5.956;2022-08-03T12:23:05;23.10;99.90
61896;DHT22;47835;52.778;5.956;2022-08-03T12:25:33;23.20;99.90
61896;DHT22;47835;52.778;5.956;2022-08-03T12:30:33;23.20;99.90
61896;DHT22;47835;52.778;5.956;2022-08-03T12:33:17;23.20;99.90
61896;DHT22;47835;52.778;5.956;2022-08-03T12:35:45;23.20;99.90
61896;DHT22;47835;52.778;5.956;2022-08-03T12:38:11;23.20;99.90
61896;DHT22;47835;52.778;5.956;2022-08-03T12:40:37;23.20;99.90
61896;DHT22;47835;52.778;5.956;2022-08-03T12:43:10;23.20;99.90
61896;DHT22;47835;52.778;5.956;2022-08-03T12:45:36;23.20;99.90
61896;DHT22;47835;52.778;5.956;2022-08-03T12:48:02;23.20;99.90
61896;DHT22;47835;52.778;5.956;2022-08-03T12:50:34;23.20;99.90
61896;DHT22;47835;52.778;5.956;2022-08-03T12:53:02;23.20;99.90
61896;DHT22;47835;52.778;5.956;2022-08-03T12:55:29;23.20;99.90
61896;DHT22;47835;52.778;5.956;2022-08-03T12:58:06;23.20;99.90
61896;DHT22;47835;52.778;5.956;2022-08-03T13:00:32;23.20;99.90
61896;DHT22;47835;52.778;5.956;2022-08-03T13:03:02;23.20;99.90
61896;DHT22;47835;52.778;5.956;2022-08-03T13:05:29;23.20;99.90
61896;DHT22;47835;52.778;5.956;2022-08-03T13:07:55;23.20;99.90
61896;DHT22;47835;52.778;5.956;2022-08-03T13:10:30;23.20;99.90
61896;DHT22;47835;52.778;5.956;2022-08-03T13:12:56;23.20;99.90
61896;DHT22;47835;52.778;5.956;2022-08-03T13:15:25;23.20;99.90
61896;DHT22;47835;52.778;5.956;2022-08-03T13:17:53;23.20;99.90
61896;DHT22;47835;52.778;5.956;2022-08-03T13:20:19;23.20;99.90
61896;DHT22;47835;52.778;5.956;2022-08-03T13:22:46;23.20;99.90
61896;DHT22;47835;52.778;5.956;2022-08-03T13:25:13;23.30;99.90
61896;DHT22;47835;52.778;5.956;2022-08-03T13:27:39;23.20;99.90
61896;DHT22;47835;52.778;5.956;2022-08-03T13:30:06;23.20;99.90
61896;DHT22;47835;52.778;5.956;2022-08-03T13:32:32;23.20;99.90
61896;DHT22;47835;52.778;5.956;2022-08-03T13:34:58;23.20;99.90
61896;DHT22;47835;52.778;5.956;2022-08-03T13:37:24;23.20;99.90
61896;DHT22;47835;52.778;5.956;2022-08-03T13:39:50;23.20;99.90
61896;DHT22;47835;52.778;5.956;2022-08-03T13:42:16;23.20;99.90
61896;DHT22;47835;52.778;5.956;2022-08-03T13:44:41;23.20;99.90
61896;DHT22;47835;52.778;5.956;2022-08-03T13:47:07;23.20;99.90
61896;DHT22;47835;52.778;5.956;2022-08-03T13:49:33;23.30;99.90
61896;DHT22;47835;52.778;5.956;2022-08-03T13:51:58;23.20;99.90
61896;DHT22;47835;52.778;5.956;2022-08-03T13:54:24;23.30;99.90
61896;DHT22;47835;52.778;5.956;2022-08-03T13:56:50;23.30;99.90
61896;DHT22;47835;52.778;5.956;2022-08-03T13:59:22;23.30;99.90
61896;DHT22;47835;52.778;5.956;2022-08-03T14:01:50;23.30;99.90
61896;DHT22;47835;52.778;5.956;2022-08-03T14:04:15;23.30;99.90
61896;DHT22;47835;52.778;5.956;2022-08-03T14:06:41;23.30;99.90
61896;DHT22;47835;52.778;5.956;2022-08-03T14:09:13;23.30;99.90
61896;DHT22;47835;52.778;5.956;2022-08-03T14:11:40;23.30;99.90
61896;DHT22;47835;52.778;5.956;2022-08-03T14:14:05;23.30;99.90
61896;DHT22;47835;52.778;5.956;2022-08-03T14:16:31;23.30;99.90
61896;DHT22;47835;52.778;5.956;2022-08-03T14:18:56;23.30;99.90
61896;DHT22;47835;52.778;5.956;2022-08-03T14:21:22;23.30;99.90
61896;DHT22;47835;52.778;5.956;2022-08-03T14:23:47;23.30;99.90
61896;DHT22;47835;52.778;5.956;2022-08-03T14:26:13;23.30;99.90
61896;DHT22;47835;52.778;5.956;2022-08-03T14:28:39;23.30;99.90
61896;DHT22;47835;52.778;5.956;2022-08-03T14:31:05;23.30;99.90
61896;DHT22;47835;52.778;5.956;2022-08-03T14:33:31;23.30;99.90
61896;DHT22;47835;52.778;5.956;2022-08-03T14:35:57;23.30;99.90
61896;DHT22;47835;52.778;5.956;2022-08-03T14:38:22;23.30;99.90
61896;DHT22;47835;52.778;5.956;2022-08-03T14:40:49;23.30;99.90
61896;DHT22;47835;52.778;5.956;2022-08-03T14:43:16;23.30;99.90
61896;DHT22;47835;52.778;5.956;2022-08-03T14:45:42;23.30;99.90
61896;DHT22;47835;52.778;5.956;2022-08-03T14:48:07;23.30;99.90
61896;DHT22;47835;52.778;5.956;2022-08-03T14:50:33;23.30;99.90
61896;DHT22;47835;52.778;5.956;2022-08-03T14:52:59;23.30;99.90
61896;DHT22;47835;52.778;5.956;2022-08-03T14:55:24;23.30;99.90
61896;DHT22;47835;52.778;5.956;2022-08-03T14:57:50;23.40;99.90
61896;DHT22;47835;52.778;5.956;2022-08-03T15:00:16;23.30;99.90
61896;DHT22;47835;52.778;5.956;2022-08-03T15:02:41;23.40;99.90
61896;DHT22;47835;52.778;5.956;2022-08-03T15:05:07;23.40;99.90
61896;DHT22;47835;52.778;5.956;2022-08-03T15:07:33;23.40;99.90
61896;DHT22;47835;52.778;5.956;2022-08-03T15:09:58;23.30;99.90
61896;DHT22;47835;52.778;5.956;2022-08-03T15:12:24;23.40;99.90
61896;DHT22;47835;52.778;5.956;2022-08-03T15:14:50;23.40;99.90
61896;DHT22;47835;52.778;5.956;2022-08-03T15:17:16;23.40;99.90
61896;DHT22;47835;52.778;5.956;2022-08-03T15:19:41;23.40;99.90
61896;DHT22;47835;52.778;5.956;2022-08-03T15:22:07;23.40;99.90
61896;DHT22;47835;52.778;5.956;2022-08-03T15:24:32;23.40;99.90
61896;DHT22;47835;52.778;5.956;2022-08-03T15:26:58;23.40;99.90
61896;DHT22;47835;52.778;5.956;2022-08-03T15:29:23;23.40;99.90
61896;DHT22;47835;52.778;5.956;2022-08-03T15:31:49;23.40;99.90
61896;DHT22;47835;52.778;5.956;2022-08-03T15:34:15;23.40;99.90
61896;DHT22;47835;52.778;5.956;2022-08-03T15:36:40;23.40;99.90
61896;DHT22;47835;52.778;5.956;2022-08-03T15:39:06;23.40;99.90
61896;DHT22;47835;52.778;5.956;2022-08-03T15:41:31;23.40;99.90
61896;DHT22;47835;52.778;5.956;2022-08-03T15:43:57;23.40;99.90
61896;DHT22;47835;52.778;5.956;2022-08-03T15:46:23;23.40;99.90
61896;DHT22;47835;52.778;5.956;2022-08-03T15:48:48;23.50;99.90
61896;DHT22;47835;52.778;5.956;2022-08-03T15:51:14;23.50;99.90
61896;DHT22;47835;52.778;5.956;2022-08-03T15:53:40;23.50;99.90
61896;DHT22;47835;52.778;5.956;2022-08-03T15:56:05;23.60;99.90
61896;DHT22;47835;52.778;5.956;2022-08-03T15:58:35;23.60;99.90
61896;DHT22;47835;52.778;5.956;2022-08-03T16:01:02;23.60;99.90
61896;DHT22;47835;52.778;5.956;2022-08-03T16:03:28;23.70;99.90
61896;DHT22;47835;52.778;5.956;2022-08-03T16:06:00;23.70;99.90
61896;DHT22;47835;52.778;5.956;2022-08-03T16:08:26;23.80;99.90
61896;DHT22;47835;52.778;5.956;2022-08-03T16:10:52;23.70;99.90
61896;DHT22;47835;52.778;5.956;2022-08-03T16:13:17;23.70;99.90